sensor_id;sensor_type;location;lat;lon;timestamp;pressure;altitude;pressure_sealevel;temperature;humidity
54806;BME280;62866;55.776;37.496;2023-05-16T00:01:25;100478.25;;;11.78;61.31
54806;BME280;62866;55.776;37.496;2023-05-16T00:03:57;100482.09;;;11.76;61.51
54806;BME280;62866;55.776;37.496;2023-05-16T00:06:23;100490.16;;;11.76;61.38
54806;BME280;62866;55.776;37.496;2023-05-16T00:08:48;100485.63;;;11.76;61.91
54806;BME280;62866;55.776;37.496;2023-05-16T00:11:16;100478.75;;;11.74;62.09
54806;BME280;62866;55.776;37.496;2023-05-16T00:13:41;100465.41;;;11.66;62.09
54806;BME280;62866;55.776;37.496;2023-05-16T00:16:07;100481.13;;;11.69;62.17
54806;BME280;62866;55.776;37.496;2023-05-16T00:18:33;100479.47;;;11.68;62.36
54806;BME280;62866;55.776;37.496;2023-05-16T00:21:02;100465.97;;;11.61;62.60
54806;BME280;62866;55.776;37.496;2023-05-16T00:23:29;100474.09;;;11.68;62.28
54806;BME280;62866;55.776;37.496;2023-05-16T00:25:55;100442.59;;;11.47;61.99
54806;BME280;62866;55.776;37.496;2023-05-16T00:28:20;100473.63;;;11.64;62.56
54806;BME280;62866;55.776;37.496;2023-05-16T00:30:46;100475.94;;;11.67;62.43
54806;BME280;62866;55.776;37.496;2023-05-16T00:33:12;100455.41;;;11.60;62.42
54806;BME280;62866;55.776;37.496;2023-05-16T00:35:37;100460.78;;;11.60;62.40
54806;BME280;62866;55.776;37.496;2023-05-16T00:38:03;100460.59;;;11.61;62.56
54806;BME280;62866;55.776;37.496;2023-05-16T00:40:28;100460.94;;;11.58;62.74
54806;BME280;62866;55.776;37.496;2023-05-16T00:42:54;100462.50;;;11.53;62.74
54806;BME280;62866;55.776;37.496;2023-05-16T00:45:20;100461.66;;;11.52;62.80
54806;BME280;62866;55.776;37.496;2023-05-16T00:47:45;100468.53;;;11.55;62.73
54806;BME280;62866;55.776;37.496;2023-05-16T00:50:11;100463.84;;;11.49;63.03
54806;BME280;62866;55.776;37.496;2023-05-16T00:52:37;100457.72;;;11.40;63.58
54806;BME280;62866;55.776;37.496;2023-05-16T00:55:03;100463.41;;;11.45;63.65
54806;BME280;62866;55.776;37.496;2023-05-16T00:57:29;100443.38;;;11.33;63.86
54806;BME280;62866;55.776;37.496;2023-05-16T00:59:54;100433.06;;;11.22;64.15
54806;BME280;62866;55.776;37.496;2023-05-16T01:02:20;100453.75;;;11.36;64.07
54806;BME280;62866;55.776;37.496;2023-05-16T01:04:46;100449.41;;;11.35;64.18
54806;BME280;62866;55.776;37.496;2023-05-16T01:07:13;100452.91;;;11.35;64.27
54806;BME280;62866;55.776;37.496;2023-05-16T01:09:39;100455.09;;;11.32;64.83
54806;BME280;62866;55.776;37.496;2023-05-16T01:12:20;100454.09;;;11.33;64.99
54806;BME280;62866;55.776;37.496;2023-05-16T01:15:16;100462.47;;;11.30;64.83
54806;BME280;62866;55.776;37.496;2023-05-16T01:18:07;100452.28;;;11.25;65.16
54806;BME280;62866;55.776;37.496;2023-05-16T01:20:48;100451.81;;;11.22;65.10
54806;BME280;62866;55.776;37.496;2023-05-16T01:28:43;100453.34;;;11.16;65.48
54806;BME280;62866;55.776;37.496;2023-05-16T01:31:09;100450.38;;;11.11;65.43
54806;BME280;62866;55.776;37.496;2023-05-16T01:33:35;100455.31;;;10.91;66.78
54806;BME280;62866;55.776;37.496;2023-05-16T01:36:11;100479.91;;;10.95;66.64
54806;BME280;62866;55.776;37.496;2023-05-16T01:38:44;100452.47;;;10.93;66.59
54806;BME280;62866;55.776;37.496;2023-05-16T01:42:00;100475.16;;;11.05;65.98
54806;BME280;62866;55.776;37.496;2023-05-16T01:44:45;100471.28;;;11.08;66.26
54806;BME280;62866;55.776;37.496;2023-05-16T01:47:15;100483.50;;;11.10;66.37
54806;BME280;62866;55.776;37.496;2023-05-16T01:50:14;100474.94;;;11.15;65.63
54806;BME280;62866;55.776;37.496;2023-05-16T01:52:42;100467.06;;;11.21;66.33
54806;BME280;62866;55.776;37.496;2023-05-16T01:55:12;100463.00;;;11.25;66.43
54806;BME280;62866;55.776;37.496;2023-05-16T01:57:40;100459.03;;;11.21;66.64
54806;BME280;62866;55.776;37.496;2023-05-16T02:00:07;100463.00;;;11.25;66.70
54806;BME280;62866;55.776;37.496;2023-05-16T02:02:33;100436.84;;;11.13;66.10
54806;BME280;62866;55.776;37.496;2023-05-16T02:04:58;100456.75;;;11.33;64.52
54806;BME280;62866;55.776;37.496;2023-05-16T02:07:24;100452.38;;;11.40;65.75
54806;BME280;62866;55.776;37.496;2023-05-16T02:09:49;100468.69;;;11.53;64.05
54806;BME280;62866;55.776;37.496;2023-05-16T02:12:15;100456.91;;;11.62;65.65
54806;BME280;62866;55.776;37.496;2023-05-16T02:14:41;100429.16;;;11.55;65.98
54806;BME280;62866;55.776;37.496;2023-05-16T02:17:06;100467.88;;;11.75;65.46
54806;BME280;62866;55.776;37.496;2023-05-16T02:19:32;100460.31;;;11.79;65.39
54806;BME280;62866;55.776;37.496;2023-05-16T02:21:57;100432.91;;;11.69;65.47
54806;BME280;62866;55.776;37.496;2023-05-16T02:24:23;100470.06;;;11.95;65.64
54806;BME280;62866;55.776;37.496;2023-05-16T02:26:48;100451.84;;;11.90;64.58
54806;BME280;62866;55.776;37.496;2023-05-16T02:29:14;100470.84;;;12.03;65.21
54806;BME280;62866;55.776;37.496;2023-05-16T02:31:41;100458.91;;;12.06;64.98
54806;BME280;62866;55.776;37.496;2023-05-16T02:34:07;100448.91;;;12.00;64.83
54806;BME280;62866;55.776;37.496;2023-05-16T02:36:33;100467.00;;;12.21;62.76
54806;BME280;62866;55.776;37.496;2023-05-16T02:39:00;100463.66;;;12.33;62.76
54806;BME280;62866;55.776;37.496;2023-05-16T02:41:26;100466.72;;;12.45;63.52
54806;BME280;62866;55.776;37.496;2023-05-16T02:43:52;100473.69;;;12.54;62.50
54806;BME280;62866;55.776;37.496;2023-05-16T02:46:21;100483.41;;;12.70;63.36
54806;BME280;62866;55.776;37.496;2023-05-16T02:48:47;100470.81;;;12.70;63.53
54806;BME280;62866;55.776;37.496;2023-05-16T02:51:13;100471.72;;;12.77;61.72
54806;BME280;62866;55.776;37.496;2023-05-16T02:53:38;100462.75;;;12.85;61.35
54806;BME280;62866;55.776;37.496;2023-05-16T02:56:04;100474.94;;;13.02;60.26
54806;BME280;62866;55.776;37.496;2023-05-16T02:58:31;100473.34;;;13.08;60.29
54806;BME280;62866;55.776;37.496;2023-05-16T03:00:57;100481.13;;;13.17;59.69
54806;BME280;62866;55.776;37.496;2023-05-16T03:03:23;100452.69;;;13.08;58.68
54806;BME280;62866;55.776;37.496;2023-05-16T03:05:48;100463.91;;;13.26;60.18
54806;BME280;62866;55.776;37.496;2023-05-16T03:08:14;100475.16;;;13.37;58.69
54806;BME280;62866;55.776;37.496;2023-05-16T03:10:40;100469.63;;;13.38;58.24
54806;BME280;62866;55.776;37.496;2023-05-16T03:13:05;100467.00;;;13.45;58.09
54806;BME280;62866;55.776;37.496;2023-05-16T03:15:31;100454.72;;;13.36;57.77
54806;BME280;62866;55.776;37.496;2023-05-16T03:17:56;100462.66;;;13.44;57.88
54806;BME280;62866;55.776;37.496;2023-05-16T03:20:22;100455.84;;;13.48;56.92
54806;BME280;62866;55.776;37.496;2023-05-16T03:22:47;100469.75;;;13.51;56.90
54806;BME280;62866;55.776;37.496;2023-05-16T03:25:13;100477.22;;;13.56;56.88
54806;BME280;62866;55.776;37.496;2023-05-16T03:27:39;100463.72;;;13.49;56.96
54806;BME280;62866;55.776;37.496;2023-05-16T03:30:05;100464.91;;;13.61;57.04
54806;BME280;62866;55.776;37.496;2023-05-16T03:32:31;100475.50;;;13.70;56.66
54806;BME280;62866;55.776;37.496;2023-05-16T03:34:57;100468.34;;;13.77;56.13
54806;BME280;62866;55.776;37.496;2023-05-16T03:37:23;100466.50;;;13.77;56.07
54806;BME280;62866;55.776;37.496;2023-05-16T03:39:48;100472.19;;;13.89;55.59
54806;BME280;62866;55.776;37.496;2023-05-16T03:42:14;100479.91;;;13.98;55.44
54806;BME280;62866;55.776;37.496;2023-05-16T03:44:39;100464.38;;;13.94;55.27
54806;BME280;62866;55.776;37.496;2023-05-16T03:47:05;100482.53;;;14.13;55.21
54806;BME280;62866;55.776;37.496;2023-05-16T03:49:31;100485.06;;;14.21;56.69
54806;BME280;62866;55.776;37.496;2023-05-16T03:51:56;100476.03;;;14.29;54.78
54806;BME280;62866;55.776;37.496;2023-05-16T03:54:22;100468.38;;;14.32;54.13
54806;BME280;62866;55.776;37.496;2023-05-16T03:56:47;100477.22;;;14.48;54.29
54806;BME280;62866;55.776;37.496;2023-05-16T03:59:13;100480.19;;;14.59;53.37
54806;BME280;62866;55.776;37.496;2023-05-16T04:01:38;100461.72;;;14.56;52.31
54806;BME280;62866;55.776;37.496;2023-05-16T04:04:04;100467.63;;;14.73;51.80
54806;BME280;62866;55.776;37.496;2023-05-16T04:06:30;100476.16;;;14.83;51.44
54806;BME280;62866;55.776;37.496;2023-05-16T04:08:56;100476.25;;;14.96;51.06
54806;BME280;62866;55.776;37.496;2023-05-16T04:11:21;100467.56;;;15.01;50.60
54806;BME280;62866;55.776;37.496;2023-05-16T04:13:47;100479.19;;;15.08;50.55
54806;BME280;62866;55.776;37.496;2023-05-16T04:16:12;100485.25;;;15.23;50.46
54806;BME280;62866;55.776;37.496;2023-05-16T04:18:38;100488.41;;;15.33;51.46
54806;BME280;62866;55.776;37.496;2023-05-16T04:21:04;100487.00;;;15.44;51.09
54806;BME280;62866;55.776;37.496;2023-05-16T04:23:29;100492.44;;;15.57;49.79
54806;BME280;62866;55.776;37.496;2023-05-16T04:25:55;100482.91;;;15.61;50.25
54806;BME280;62866;55.776;37.496;2023-05-16T04:28:21;100498.72;;;15.77;49.71
54806;BME280;62866;55.776;37.496;2023-05-16T04:30:47;100498.75;;;15.97;48.90
54806;BME280;62866;55.776;37.496;2023-05-16T04:33:13;100500.41;;;16.05;48.98
54806;BME280;62866;55.776;37.496;2023-05-16T04:35:38;100498.94;;;16.28;48.85
54806;BME280;62866;55.776;37.496;2023-05-16T04:38:04;100484.84;;;16.40;47.46
54806;BME280;62866;55.776;37.496;2023-05-16T04:40:30;100497.44;;;16.59;47.03
54806;BME280;62866;55.776;37.496;2023-05-16T04:42:56;100498.50;;;16.78;46.45
54806;BME280;62866;55.776;37.496;2023-05-16T04:45:21;100492.84;;;16.92;46.20
54806;BME280;62866;55.776;37.496;2023-05-16T04:47:47;100502.56;;;17.06;45.29
54806;BME280;62866;55.776;37.496;2023-05-16T04:50:12;100494.81;;;17.17;44.64
54806;BME280;62866;55.776;37.496;2023-05-16T04:52:40;100508.72;;;17.27;44.21
54806;BME280;62866;55.776;37.496;2023-05-16T04:55:06;100499.56;;;17.28;43.85
54806;BME280;62866;55.776;37.496;2023-05-16T04:57:31;100509.50;;;17.40;43.74
54806;BME280;62866;55.776;37.496;2023-05-16T04:59:57;100514.78;;;17.60;43.70
54806;BME280;62866;55.776;37.496;2023-05-16T05:02:22;100510.81;;;17.69;43.18
54806;BME280;62866;55.776;37.496;2023-05-16T05:04:48;100513.66;;;17.81;41.76
54806;BME280;62866;55.776;37.496;2023-05-16T05:07:14;100526.16;;;17.82;41.55
54806;BME280;62866;55.776;37.496;2023-05-16T05:09:40;100507.22;;;17.82;41.18
54806;BME280;62866;55.776;37.496;2023-05-16T05:12:08;100539.72;;;18.07;40.89
54806;BME280;62866;55.776;37.496;2023-05-16T05:14:34;100524.13;;;18.02;40.06
54806;BME280;62866;55.776;37.496;2023-05-16T05:16:59;100522.03;;;18.04;40.09
54806;BME280;62866;55.776;37.496;2023-05-16T05:19:25;100521.91;;;18.17;39.59
54806;BME280;62866;55.776;37.496;2023-05-16T05:21:51;100511.91;;;18.18;38.89
54806;BME280;62866;55.776;37.496;2023-05-16T05:24:17;100523.09;;;18.28;39.35
54806;BME280;62866;55.776;37.496;2023-05-16T05:26:42;100519.34;;;18.29;39.75
54806;BME280;62866;55.776;37.496;2023-05-16T05:29:08;100516.13;;;18.39;38.81
54806;BME280;62866;55.776;37.496;2023-05-16T05:31:33;100510.72;;;18.39;37.88
54806;BME280;62866;55.776;37.496;2023-05-16T05:33:59;100515.94;;;18.34;38.87
54806;BME280;62866;55.776;37.496;2023-05-16T05:36:25;100537.03;;;18.56;38.12
54806;BME280;62866;55.776;37.496;2023-05-16T05:38:50;100536.16;;;18.63;38.19
54806;BME280;62866;55.776;37.496;2023-05-16T05:41:16;100527.66;;;18.52;38.39
54806;BME280;62866;55.776;37.496;2023-05-16T05:43:41;100540.38;;;18.52;38.68
54806;BME280;62866;55.776;37.496;2023-05-16T05:46:07;100536.97;;;18.63;38.78
54806;BME280;62866;55.776;37.496;2023-05-16T05:48:33;100529.47;;;18.65;38.28
54806;BME280;62866;55.776;37.496;2023-05-16T05:50:58;100540.22;;;18.72;39.54
54806;BME280;62866;55.776;37.496;2023-05-16T05:53:24;100529.16;;;18.91;39.27
54806;BME280;62866;55.776;37.496;2023-05-16T05:55:50;100517.50;;;19.09;39.51
54806;BME280;62866;55.776;37.496;2023-05-16T05:58:15;100530.53;;;19.37;38.94
54806;BME280;62866;55.776;37.496;2023-05-16T06:00:42;100544.59;;;19.64;38.94
54806;BME280;62866;55.776;37.496;2023-05-16T06:03:08;100521.38;;;19.68;38.81
54806;BME280;62866;55.776;37.496;2023-05-16T06:05:33;100546.56;;;19.87;38.79
54806;BME280;62866;55.776;37.496;2023-05-16T06:07:59;100545.28;;;19.89;38.62
54806;BME280;62866;55.776;37.496;2023-05-16T06:10:24;100550.41;;;19.97;38.12
54806;BME280;62866;55.776;37.496;2023-05-16T06:12:50;100547.69;;;20.09;37.80
54806;BME280;62866;55.776;37.496;2023-05-16T06:15:15;100549.56;;;20.08;37.39
54806;BME280;62866;55.776;37.496;2023-05-16T06:17:41;100553.03;;;20.16;37.36
54806;BME280;62866;55.776;37.496;2023-05-16T06:20:07;100548.44;;;20.16;36.47
54806;BME280;62866;55.776;37.496;2023-05-16T06:22:32;100556.91;;;20.50;35.52
54806;BME280;62866;55.776;37.496;2023-05-16T06:24:58;100538.34;;;20.70;35.46
54806;BME280;62866;55.776;37.496;2023-05-16T06:27:24;100554.06;;;21.66;34.57
54806;BME280;62866;55.776;37.496;2023-05-16T06:29:49;100535.84;;;22.95;32.66
54806;BME280;62866;55.776;37.496;2023-05-16T06:32:15;100547.41;;;23.46;31.90
54806;BME280;62866;55.776;37.496;2023-05-16T06:34:41;100547.72;;;23.71;30.76
54806;BME280;62866;55.776;37.496;2023-05-16T06:37:06;100537.50;;;23.18;31.83
54806;BME280;62866;55.776;37.496;2023-05-16T06:39:32;100542.31;;;22.56;32.28
54806;BME280;62866;55.776;37.496;2023-05-16T06:41:57;100544.66;;;22.02;32.86
54806;BME280;62866;55.776;37.496;2023-05-16T06:44:23;100537.38;;;21.63;33.96
54806;BME280;62866;55.776;37.496;2023-05-16T06:46:48;100543.75;;;21.16;33.84
54806;BME280;62866;55.776;37.496;2023-05-16T06:49:14;100539.44;;;20.80;33.95
54806;BME280;62866;55.776;37.496;2023-05-16T06:51:39;100533.06;;;20.63;34.44
54806;BME280;62866;55.776;37.496;2023-05-16T06:54:05;100535.84;;;20.33;34.29
54806;BME280;62866;55.776;37.496;2023-05-16T06:56:31;100525.75;;;19.99;34.62
54806;BME280;62866;55.776;37.496;2023-05-16T06:58:57;100528.19;;;19.89;34.93
54806;BME280;62866;55.776;37.496;2023-05-16T07:01:22;100551.91;;;19.93;34.82
54806;BME280;62866;55.776;37.496;2023-05-16T07:03:48;100541.38;;;19.85;34.08
54806;BME280;62866;55.776;37.496;2023-05-16T07:06:13;100550.16;;;19.99;33.85
54806;BME280;62866;55.776;37.496;2023-05-16T07:08:39;100543.69;;;20.12;33.99
54806;BME280;62866;55.776;37.496;2023-05-16T07:11:05;100536.97;;;20.14;34.09
54806;BME280;62866;55.776;37.496;2023-05-16T07:13:30;100553.94;;;20.09;33.86
54806;BME280;62866;55.776;37.496;2023-05-16T07:15:56;100550.78;;;20.13;33.58
54806;BME280;62866;55.776;37.496;2023-05-16T07:18:21;100547.53;;;20.34;33.16
54806;BME280;62866;55.776;37.496;2023-05-16T07:20:47;100549.13;;;20.65;32.50
54806;BME280;62866;55.776;37.496;2023-05-16T07:23:12;100527.81;;;20.97;32.51
54806;BME280;62866;55.776;37.496;2023-05-16T07:25:38;100527.25;;;22.03;32.14
54806;BME280;62866;55.776;37.496;2023-05-16T07:28:04;100537.97;;;23.54;30.47
54806;BME280;62866;55.776;37.496;2023-05-16T07:30:29;100538.97;;;23.96;29.82
54806;BME280;62866;55.776;37.496;2023-05-16T07:32:55;100466.31;;;22.76;29.41
54806;BME280;62866;55.776;37.496;2023-05-16T07:35:21;100530.31;;;22.74;30.31
54806;BME280;62866;55.776;37.496;2023-05-16T07:37:46;100537.94;;;22.55;30.44
54806;BME280;62866;55.776;37.496;2023-05-16T07:40:12;100531.91;;;22.36;30.94
54806;BME280;62866;55.776;37.496;2023-05-16T07:42:38;100520.16;;;22.02;31.90
54806;BME280;62866;55.776;37.496;2023-05-16T07:45:05;100534.63;;;22.19;30.34
54806;BME280;62866;55.776;37.496;2023-05-16T07:47:31;100535.69;;;21.73;30.25
54806;BME280;62866;55.776;37.496;2023-05-16T07:49:57;100532.56;;;21.53;30.72
54806;BME280;62866;55.776;37.496;2023-05-16T07:52:22;100539.56;;;21.49;31.13
54806;BME280;62866;55.776;37.496;2023-05-16T07:54:48;100527.66;;;21.38;31.04
54806;BME280;62866;55.776;37.496;2023-05-16T07:57:14;100532.34;;;21.43;31.55
54806;BME280;62866;55.776;37.496;2023-05-16T07:59:40;100529.91;;;21.98;30.64
54806;BME280;62866;55.776;37.496;2023-05-16T08:02:06;100526.78;;;22.06;30.10
54806;BME280;62866;55.776;37.496;2023-05-16T08:04:32;100525.97;;;22.22;29.63
54806;BME280;62866;55.776;37.496;2023-05-16T08:06:57;100527.94;;;22.27;29.32
54806;BME280;62866;55.776;37.496;2023-05-16T08:09:23;100505.91;;;23.00;29.09
54806;BME280;62866;55.776;37.496;2023-05-16T08:11:49;100537.06;;;24.61;27.24
54806;BME280;62866;55.776;37.496;2023-05-16T08:14:14;100524.72;;;27.25;25.59
54806;BME280;62866;55.776;37.496;2023-05-16T08:16:40;100503.28;;;29.06;23.29
54806;BME280;62866;55.776;37.496;2023-05-16T08:19:06;100509.66;;;30.98;22.34
54806;BME280;62866;55.776;37.496;2023-05-16T08:21:32;100529.59;;;32.89;22.73
54806;BME280;62866;55.776;37.496;2023-05-16T08:23:57;100513.38;;;34.39;20.38
54806;BME280;62866;55.776;37.496;2023-05-16T08:26:23;100510.50;;;35.41;19.20
54806;BME280;62866;55.776;37.496;2023-05-16T08:28:49;100505.75;;;35.91;17.96
54806;BME280;62866;55.776;37.496;2023-05-16T08:31:14;100482.78;;;35.53;18.58
54806;BME280;62866;55.776;37.496;2023-05-16T08:33:40;100502.53;;;36.22;19.16
54806;BME280;62866;55.776;37.496;2023-05-16T08:36:06;100509.00;;;36.59;19.54
54806;BME280;62866;55.776;37.496;2023-05-16T08:38:33;100501.94;;;34.95;18.36
54806;BME280;62866;55.776;37.496;2023-05-16T08:40:59;100517.63;;;33.19;19.40
54806;BME280;62866;55.776;37.496;2023-05-16T08:43:24;100502.81;;;31.50;20.12
54806;BME280;62866;55.776;37.496;2023-05-16T08:45:50;100504.19;;;31.12;21.00
54806;BME280;62866;55.776;37.496;2023-05-16T08:48:17;100493.72;;;30.95;20.67
54806;BME280;62866;55.776;37.496;2023-05-16T08:50:47;100494.38;;;31.19;21.00
54806;BME280;62866;55.776;37.496;2023-05-16T08:53:14;100504.16;;;30.71;21.70
54806;BME280;62866;55.776;37.496;2023-05-16T08:55:43;100500.72;;;29.76;21.76
54806;BME280;62866;55.776;37.496;2023-05-16T08:58:10;100502.66;;;27.94;23.75
54806;BME280;62866;55.776;37.496;2023-05-16T09:00:37;100500.63;;;27.11;24.66
54806;BME280;62866;55.776;37.496;2023-05-16T09:03:04;100498.25;;;26.74;24.85
54806;BME280;62866;55.776;37.496;2023-05-16T09:05:30;100506.63;;;27.24;23.17
54806;BME280;62866;55.776;37.496;2023-05-16T09:07:56;100505.00;;;27.72;22.78
54806;BME280;62866;55.776;37.496;2023-05-16T09:10:22;100499.81;;;27.11;23.43
54806;BME280;62866;55.776;37.496;2023-05-16T09:12:47;100506.47;;;26.74;23.86
54806;BME280;62866;55.776;37.496;2023-05-16T09:15:13;100501.81;;;25.68;25.36
54806;BME280;62866;55.776;37.496;2023-05-16T09:17:54;100499.41;;;25.20;24.67
54806;BME280;62866;55.776;37.496;2023-05-16T09:20:19;100496.31;;;23.90;26.28
54806;BME280;62866;55.776;37.496;2023-05-16T09:22:50;100498.47;;;22.96;27.80
54806;BME280;62866;55.776;37.496;2023-05-16T09:25:16;100498.06;;;22.32;28.76
54806;BME280;62866;55.776;37.496;2023-05-16T09:27:42;100485.13;;;21.77;29.27
54806;BME280;62866;55.776;37.496;2023-05-16T09:30:08;100501.13;;;21.45;29.49
54806;BME280;62866;55.776;37.496;2023-05-16T09:32:34;100494.94;;;21.10;29.52
54806;BME280;62866;55.776;37.496;2023-05-16T09:34:59;100484.47;;;20.90;29.95
54806;BME280;62866;55.776;37.496;2023-05-16T09:37:25;100480.19;;;20.94;30.29
54806;BME280;62866;55.776;37.496;2023-05-16T09:39:52;100476.63;;;20.94;29.91
54806;BME280;62866;55.776;37.496;2023-05-16T09:42:20;100464.28;;;20.63;30.21
54806;BME280;62866;55.776;37.496;2023-05-16T09:44:51;100473.72;;;20.60;30.40
54806;BME280;62866;55.776;37.496;2023-05-16T09:47:18;100470.09;;;20.55;30.37
54806;BME280;62866;55.776;37.496;2023-05-16T09:49:45;100472.34;;;20.58;30.68
54806;BME280;62866;55.776;37.496;2023-05-16T09:52:12;100463.00;;;20.54;30.53
54806;BME280;62866;55.776;37.496;2023-05-16T09:54:38;100465.47;;;20.43;31.53
54806;BME280;62866;55.776;37.496;2023-05-16T09:57:03;100470.44;;;20.47;32.01
54806;BME280;62866;55.776;37.496;2023-05-16T09:59:39;100467.13;;;20.44;31.88
54806;BME280;62866;55.776;37.496;2023-05-16T10:02:05;100460.63;;;20.34;32.19
54806;BME280;62866;55.776;37.496;2023-05-16T10:04:33;100472.56;;;20.33;32.19
54806;BME280;62866;55.776;37.496;2023-05-16T10:07:01;100465.00;;;20.35;31.88
54806;BME280;62866;55.776;37.496;2023-05-16T10:09:33;100420.00;;;20.16;32.22
54806;BME280;62866;55.776;37.496;2023-05-16T10:12:03;100438.31;;;20.43;31.79
54806;BME280;62866;55.776;37.496;2023-05-16T10:14:35;100443.66;;;20.50;31.79
54806;BME280;62866;55.776;37.496;2023-05-16T10:17:06;100455.91;;;20.53;31.56
54806;BME280;62866;55.776;37.496;2023-05-16T10:19:36;100450.72;;;20.51;31.31
54806;BME280;62866;55.776;37.496;2023-05-16T10:22:04;100442.44;;;20.34;31.27
54806;BME280;62866;55.776;37.496;2023-05-16T10:27:17;100413.53;;;20.17;31.25
54806;BME280;62866;55.776;37.496;2023-05-16T10:29:43;100435.22;;;20.28;31.92
54806;BME280;62866;55.776;37.496;2023-05-16T10:32:09;100428.63;;;20.36;31.95
54806;BME280;62866;55.776;37.496;2023-05-16T10:34:37;100419.06;;;20.45;31.57
54806;BME280;62866;55.776;37.496;2023-05-16T10:37:04;100439.28;;;20.49;31.69
54806;BME280;62866;55.776;37.496;2023-05-16T10:39:30;100426.25;;;20.51;32.03
54806;BME280;62866;55.776;37.496;2023-05-16T10:41:57;100422.94;;;20.61;32.00
54806;BME280;62866;55.776;37.496;2023-05-16T10:44:24;100421.19;;;20.66;31.79
54806;BME280;62866;55.776;37.496;2023-05-16T10:46:50;100420.00;;;20.51;31.49
54806;BME280;62866;55.776;37.496;2023-05-16T10:49:23;100415.88;;;20.36;31.49
54806;BME280;62866;55.776;37.496;2023-05-16T10:52:11;100416.13;;;20.35;32.18
54806;BME280;62866;55.776;37.496;2023-05-16T10:54:39;100408.09;;;20.40;32.42
54806;BME280;62866;55.776;37.496;2023-05-16T10:57:16;100405.63;;;20.50;32.49
54806;BME280;62866;55.776;37.496;2023-05-16T10:59:48;100419.41;;;20.60;31.37
54806;BME280;62866;55.776;37.496;2023-05-16T11:02:27;100397.34;;;20.57;31.52
54806;BME280;62866;55.776;37.496;2023-05-16T11:04:57;100409.81;;;20.69;32.28
54806;BME280;62866;55.776;37.496;2023-05-16T11:07:24;100400.50;;;20.65;31.79
54806;BME280;62866;55.776;37.496;2023-05-16T11:10:08;100392.47;;;20.59;31.51
54806;BME280;62866;55.776;37.496;2023-05-16T11:12:38;100411.25;;;20.60;31.48
54806;BME280;62866;55.776;37.496;2023-05-16T11:15:27;100411.47;;;20.59;31.69
54806;BME280;62866;55.776;37.496;2023-05-16T11:18:13;100412.31;;;20.59;31.65
54806;BME280;62866;55.776;37.496;2023-05-16T11:20:40;100396.50;;;20.44;31.75
54806;BME280;62866;55.776;37.496;2023-05-16T11:25:44;100411.16;;;20.43;32.52
54806;BME280;62866;55.776;37.496;2023-05-16T11:28:13;100395.59;;;20.39;32.40
54806;BME280;62866;55.776;37.496;2023-05-16T11:30:44;100392.63;;;20.40;32.50
54806;BME280;62866;55.776;37.496;2023-05-16T11:33:10;100397.56;;;20.55;32.37
54806;BME280;62866;55.776;37.496;2023-05-16T11:35:39;100398.41;;;20.56;32.63
54806;BME280;62866;55.776;37.496;2023-05-16T11:38:04;100394.94;;;20.60;32.25
54806;BME280;62866;55.776;37.496;2023-05-16T11:40:30;100393.88;;;20.61;32.25
54806;BME280;62866;55.776;37.496;2023-05-16T11:42:59;100391.66;;;20.58;32.30
54806;BME280;62866;55.776;37.496;2023-05-16T11:45:27;100382.31;;;20.54;32.49
54806;BME280;62866;55.776;37.496;2023-05-16T11:47:53;100378.91;;;20.47;32.65
54806;BME280;62866;55.776;37.496;2023-05-16T11:50:21;100391.06;;;20.44;33.14
54806;BME280;62866;55.776;37.496;2023-05-16T11:52:52;100393.31;;;20.48;33.71
54806;BME280;62866;55.776;37.496;2023-05-16T11:55:21;100381.16;;;20.50;33.27
54806;BME280;62866;55.776;37.496;2023-05-16T11:57:49;100376.28;;;20.52;33.05
54806;BME280;62866;55.776;37.496;2023-05-16T12:00:20;100375.13;;;20.48;33.48
54806;BME280;62866;55.776;37.496;2023-05-16T12:02:47;100371.59;;;20.36;33.24
54806;BME280;62866;55.776;37.496;2023-05-16T12:05:14;100400.06;;;20.45;33.21
54806;BME280;62866;55.776;37.496;2023-05-16T12:07:42;100390.63;;;20.36;33.60
54806;BME280;62866;55.776;37.496;2023-05-16T12:10:10;100385.41;;;20.23;33.80
54806;BME280;62866;55.776;37.496;2023-05-16T12:12:37;100358.63;;;20.03;33.90
54806;BME280;62866;55.776;37.496;2023-05-16T12:15:04;100378.69;;;20.14;34.29
54806;BME280;62866;55.776;37.496;2023-05-16T12:17:34;100383.66;;;20.17;34.73
54806;BME280;62866;55.776;37.496;2023-05-16T12:20:01;100373.72;;;20.22;34.32
54806;BME280;62866;55.776;37.496;2023-05-16T12:22:30;100350.56;;;20.20;34.07
54806;BME280;62866;55.776;37.496;2023-05-16T12:24:58;100367.91;;;20.42;34.30
54806;BME280;62866;55.776;37.496;2023-05-16T12:27:24;100373.72;;;20.45;33.89
54806;BME280;62866;55.776;37.496;2023-05-16T12:29:50;100378.53;;;20.55;34.57
54806;BME280;62866;55.776;37.496;2023-05-16T12:32:20;100365.34;;;20.47;33.88
54806;BME280;62866;55.776;37.496;2023-05-16T12:34:49;100364.72;;;20.57;33.92
54806;BME280;62866;55.776;37.496;2023-05-16T12:37:16;100372.06;;;20.56;34.15
54806;BME280;62866;55.776;37.496;2023-05-16T12:39:41;100373.81;;;20.51;33.95
54806;BME280;62866;55.776;37.496;2023-05-16T12:42:07;100364.66;;;20.40;33.53
54806;BME280;62866;55.776;37.496;2023-05-16T12:44:34;100367.22;;;20.35;34.06
54806;BME280;62866;55.776;37.496;2023-05-16T12:47:01;100375.97;;;20.37;34.00
54806;BME280;62866;55.776;37.496;2023-05-16T12:49:26;100369.00;;;20.29;33.71
54806;BME280;62866;55.776;37.496;2023-05-16T12:51:54;100368.63;;;20.26;33.98